sensor_id;sensor_type;location;lat;lon;timestamp;temperature;humidity
3678;DHT22;1855;50.934;6.958;2022-07-29T00:00:21;20.20;50.50
3678;DHT22;1855;50.934;6.958;2022-07-29T00:02:48;20.20;51.20
3678;DHT22;1855;50.934;6.958;2022-07-29T00:05:16;20.20;50.30
3678;DHT22;1855;50.934;6.958;2022-07-29T00:07:43;20.20;50.40
3678;DHT22;1855;50.934;6.958;2022-07-29T00:10:10;20.20;50.40
3678;DHT22;1855;50.934;6.958;2022-07-29T00:12:36;20.20;50.40
3678;DHT22;1855;50.934;6.958;2022-07-29T00:15:04;20.20;50.40
3678;DHT22;1855;50.934;6.958;2022-07-29T00:17:31;20.20;51.60
3678;DHT22;1855;50.934;6.958;2022-07-29T00:19:59;20.10;51.10
3678;DHT22;1855;50.934;6.958;2022-07-29T00:22:27;20.20;53.00
3678;DHT22;1855;50.934;6.958;2022-07-29T00:24:54;20.10;52.30
3678;DHT22;1855;50.934;6.958;2022-07-29T00:27:21;20.10;52.50
3678;DHT22;1855;50.934;6.958;2022-07-29T00:29:48;20.10;51.90
3678;DHT22;1855;50.934;6.958;2022-07-29T00:32:15;20.10;51.90
3678;DHT22;1855;50.934;6.958;2022-07-29T00:34:42;20.20;51.00
3678;DHT22;1855;50.934;6.958;2022-07-29T00:37:28;20.20;51.80
3678;DHT22;1855;50.934;6.958;2022-07-29T00:39:55;20.10;52.10
3678;DHT22;1855;50.934;6.958;2022-07-29T00:42:21;20.10;51.50
3678;DHT22;1855;50.934;6.958;2022-07-29T00:44:48;20.10;51.20
3678;DHT22;1855;50.934;6.958;2022-07-29T00:47:15;20.10;51.10
3678;DHT22;1855;50.934;6.958;2022-07-29T00:49:42;20.10;52.20
3678;DHT22;1855;50.934;6.958;2022-07-29T00:52:10;20.10;50.10
3678;DHT22;1855;50.934;6.958;2022-07-29T00:54:40;20.10;51.90
3678;DHT22;1855;50.934;6.958;2022-07-29T00:57:07;20.10;52.00
3678;DHT22;1855;50.934;6.958;2022-07-29T00:59:34;20.10;51.60
3678;DHT22;1855;50.934;6.958;2022-07-29T01:02:02;20.10;51.70
3678;DHT22;1855;50.934;6.958;2022-07-29T01:04:29;20.10;52.50
3678;DHT22;1855;50.934;6.958;2022-07-29T01:06:57;20.10;52.50
3678;DHT22;1855;50.934;6.958;2022-07-29T01:09:24;20.10;52.10
3678;DHT22;1855;50.934;6.958;2022-07-29T01:11:53;20.10;52.40
3678;DHT22;1855;50.934;6.958;2022-07-29T01:14:21;20.10;52.60
3678;DHT22;1855;50.934;6.958;2022-07-29T01:16:53;20.10;53.40
3678;DHT22;1855;50.934;6.958;2022-07-29T01:19:46;20.00;53.40
3678;DHT22;1855;50.934;6.958;2022-07-29T01:22:26;20.00;54.60
3678;DHT22;1855;50.934;6.958;2022-07-29T01:25:10;20.00;54.10
3678;DHT22;1855;50.934;6.958;2022-07-29T01:27:47;20.00;53.60
3678;DHT22;1855;50.934;6.958;2022-07-29T01:30:22;20.00;54.20
3678;DHT22;1855;50.934;6.958;2022-07-29T01:32:56;20.00;53.10
3678;DHT22;1855;50.934;6.958;2022-07-29T01:35:27;20.00;53.30
3678;DHT22;1855;50.934;6.958;2022-07-29T01:37:59;20.00;53.80
3678;DHT22;1855;50.934;6.958;2022-07-29T01:40:33;20.00;53.60
3678;DHT22;1855;50.934;6.958;2022-07-29T01:43:06;20.00;53.10
3678;DHT22;1855;50.934;6.958;2022-07-29T01:45:41;20.00;53.70
3678;DHT22;1855;50.934;6.958;2022-07-29T01:48:13;20.00;53.50
3678;DHT22;1855;50.934;6.958;2022-07-29T01:50:46;20.00;53.00
3678;DHT22;1855;50.934;6.958;2022-07-29T01:53:18;20.00;52.60
3678;DHT22;1855;50.934;6.958;2022-07-29T01:55:48;20.00;52.50
3678;DHT22;1855;50.934;6.958;2022-07-29T01:58:17;20.00;52.40
3678;DHT22;1855;50.934;6.958;2022-07-29T02:00:47;20.00;52.30
3678;DHT22;1855;50.934;6.958;2022-07-29T02:03:16;20.00;52.60
3678;DHT22;1855;50.934;6.958;2022-07-29T02:05:45;20.00;52.00
3678;DHT22;1855;50.934;6.958;2022-07-29T02:08:13;19.90;50.70
3678;DHT22;1855;50.934;6.958;2022-07-29T02:10:42;19.90;51.70
3678;DHT22;1855;50.934;6.958;2022-07-29T02:13:11;19.90;52.60
3678;DHT22;1855;50.934;6.958;2022-07-29T02:15:39;19.80;52.30
3678;DHT22;1855;50.934;6.958;2022-07-29T02:18:12;19.80;53.20
3678;DHT22;1855;50.934;6.958;2022-07-29T02:20:42;19.80;54.30
3678;DHT22;1855;50.934;6.958;2022-07-29T02:23:12;19.70;53.10
3678;DHT22;1855;50.934;6.958;2022-07-29T02:25:41;19.70;53.20
3678;DHT22;1855;50.934;6.958;2022-07-29T02:28:08;19.70;52.40
3678;DHT22;1855;50.934;6.958;2022-07-29T02:30:38;19.60;52.50
3678;DHT22;1855;50.934;6.958;2022-07-29T02:33:05;19.60;51.90
3678;DHT22;1855;50.934;6.958;2022-07-29T02:35:34;19.50;52.90
3678;DHT22;1855;50.934;6.958;2022-07-29T02:38:01;19.50;51.60
3678;DHT22;1855;50.934;6.958;2022-07-29T02:40:50;19.50;54.00
3678;DHT22;1855;50.934;6.958;2022-07-29T02:43:19;19.50;52.80
3678;DHT22;1855;50.934;6.958;2022-07-29T02:45:47;19.50;52.50
3678;DHT22;1855;50.934;6.958;2022-07-29T02:48:18;19.50;51.40
3678;DHT22;1855;50.934;6.958;2022-07-29T02:50:50;19.50;51.50
3678;DHT22;1855;50.934;6.958;2022-07-29T02:53:19;19.40;51.30
3678;DHT22;1855;50.934;6.958;2022-07-29T02:55:53;19.40;51.70
3678;DHT22;1855;50.934;6.958;2022-07-29T02:58:24;19.50;51.00
3678;DHT22;1855;50.934;6.958;2022-07-29T03:00:55;19.40;50.90
3678;DHT22;1855;50.934;6.958;2022-07-29T03:03:26;19.40;50.50
3678;DHT22;1855;50.934;6.958;2022-07-29T03:05:57;19.40;50.40
3678;DHT22;1855;50.934;6.958;2022-07-29T03:08:24;19.40;50.60
3678;DHT22;1855;50.934;6.958;2022-07-29T03:10:53;19.50;50.80
3678;DHT22;1855;50.934;6.958;2022-07-29T03:13:20;19.50;52.00
3678;DHT22;1855;50.934;6.958;2022-07-29T03:15:47;19.50;53.60
3678;DHT22;1855;50.934;6.958;2022-07-29T03:18:15;19.30;54.40
3678;DHT22;1855;50.934;6.958;2022-07-29T03:20:42;19.20;55.90
3678;DHT22;1855;50.934;6.958;2022-07-29T03:23:11;19.20;55.90
3678;DHT22;1855;50.934;6.958;2022-07-29T03:25:37;19.10;56.00
3678;DHT22;1855;50.934;6.958;2022-07-29T03:28:04;19.10;56.50
3678;DHT22;1855;50.934;6.958;2022-07-29T03:30:31;19.00;56.60
3678;DHT22;1855;50.934;6.958;2022-07-29T03:32:58;19.00;57.00
3678;DHT22;1855;50.934;6.958;2022-07-29T03:35:25;19.00;56.30
3678;DHT22;1855;50.934;6.958;2022-07-29T03:37:52;19.00;56.30
3678;DHT22;1855;50.934;6.958;2022-07-29T03:40:24;19.00;56.40
3678;DHT22;1855;50.934;6.958;2022-07-29T03:42:54;19.00;56.30
3678;DHT22;1855;50.934;6.958;2022-07-29T03:45:22;19.00;56.70
3678;DHT22;1855;50.934;6.958;2022-07-29T03:47:53;19.00;56.70
3678;DHT22;1855;50.934;6.958;2022-07-29T03:50:21;19.00;56.60
3678;DHT22;1855;50.934;6.958;2022-07-29T03:52:49;19.00;56.10
3678;DHT22;1855;50.934;6.958;2022-07-29T03:55:16;19.00;56.90
3678;DHT22;1855;50.934;6.958;2022-07-29T03:57:45;19.00;57.00
3678;DHT22;1855;50.934;6.958;2022-07-29T04:00:13;18.90;57.40
3678;DHT22;1855;50.934;6.958;2022-07-29T04:02:43;18.90;57.50
3678;DHT22;1855;50.934;6.958;2022-07-29T04:05:14;18.90;57.30
3678;DHT22;1855;50.934;6.958;2022-07-29T04:07:42;18.90;56.90
3678;DHT22;1855;50.934;6.958;2022-07-29T04:10:09;18.90;57.30
3678;DHT22;1855;50.934;6.958;2022-07-29T04:12:36;18.90;57.00
3678;DHT22;1855;50.934;6.958;2022-07-29T04:15:05;18.80;57.30
3678;DHT22;1855;50.934;6.958;2022-07-29T04:17:32;18.90;56.90
3678;DHT22;1855;50.934;6.958;2022-07-29T04:19:59;18.90;56.40
3678;DHT22;1855;50.934;6.958;2022-07-29T04:22:25;18.90;56.10
3678;DHT22;1855;50.934;6.958;2022-07-29T04:24:52;18.90;56.30
3678;DHT22;1855;50.934;6.958;2022-07-29T04:27:19;18.90;56.20
3678;DHT22;1855;50.934;6.958;2022-07-29T04:29:45;18.90;56.50
3678;DHT22;1855;50.934;6.958;2022-07-29T04:32:14;18.80;56.30
3678;DHT22;1855;50.934;6.958;2022-07-29T04:34:40;18.80;56.20
3678;DHT22;1855;50.934;6.958;2022-07-29T04:37:07;18.80;56.60
3678;DHT22;1855;50.934;6.958;2022-07-29T04:39:34;18.80;56.60
3678;DHT22;1855;50.934;6.958;2022-07-29T04:42:01;18.80;56.50
3678;DHT22;1855;50.934;6.958;2022-07-29T04:44:27;18.80;56.40
3678;DHT22;1855;50.934;6.958;2022-07-29T04:46:55;18.90;56.70
3678;DHT22;1855;50.934;6.958;2022-07-29T04:49:23;18.90;56.50
3678;DHT22;1855;50.934;6.958;2022-07-29T04:51:50;18.90;56.80
3678;DHT22;1855;50.934;6.958;2022-07-29T04:54:17;18.90;57.00
3678;DHT22;1855;50.934;6.958;2022-07-29T04:56:43;19.00;56.20
3678;DHT22;1855;50.934;6.958;2022-07-29T04:59:11;19.00;55.80
3678;DHT22;1855;50.934;6.958;2022-07-29T05:01:38;19.00;55.50
3678;DHT22;1855;50.934;6.958;2022-07-29T05:04:05;19.00;55.30
3678;DHT22;1855;50.934;6.958;2022-07-29T05:06:33;19.00;54.90
3678;DHT22;1855;50.934;6.958;2022-07-29T05:09:00;19.10;55.10
3678;DHT22;1855;50.934;6.958;2022-07-29T05:11:27;19.10;55.10
3678;DHT22;1855;50.934;6.958;2022-07-29T05:13:54;19.10;55.20
3678;DHT22;1855;50.934;6.958;2022-07-29T05:16:20;19.10;54.50
3678;DHT22;1855;50.934;6.958;2022-07-29T05:18:47;19.10;54.90
3678;DHT22;1855;50.934;6.958;2022-07-29T05:21:14;19.10;55.00
3678;DHT22;1855;50.934;6.958;2022-07-29T05:23:42;19.10;55.20
3678;DHT22;1855;50.934;6.958;2022-07-29T05:26:09;19.10;55.00
3678;DHT22;1855;50.934;6.958;2022-07-29T05:28:36;19.10;54.70
3678;DHT22;1855;50.934;6.958;2022-07-29T05:31:03;19.20;54.80
3678;DHT22;1855;50.934;6.958;2022-07-29T05:33:29;19.20;54.40
3678;DHT22;1855;50.934;6.958;2022-07-29T05:35:57;19.30;54.10
3678;DHT22;1855;50.934;6.958;2022-07-29T05:38:23;19.30;54.40
3678;DHT22;1855;50.934;6.958;2022-07-29T05:40:52;19.30;54.10
3678;DHT22;1855;50.934;6.958;2022-07-29T05:43:18;19.40;54.50
3678;DHT22;1855;50.934;6.958;2022-07-29T05:45:46;19.40;54.50
3678;DHT22;1855;50.934;6.958;2022-07-29T05:48:13;19.50;54.10
3678;DHT22;1855;50.934;6.958;2022-07-29T05:50:39;19.50;53.40
3678;DHT22;1855;50.934;6.958;2022-07-29T05:53:06;19.50;53.00
3678;DHT22;1855;50.934;6.958;2022-07-29T05:55:33;19.50;52.90
3678;DHT22;1855;50.934;6.958;2022-07-29T05:58:01;19.50;52.90
3678;DHT22;1855;50.934;6.958;2022-07-29T06:00:28;19.50;53.20
3678;DHT22;1855;50.934;6.958;2022-07-29T06:02:55;19.50;53.40
3678;DHT22;1855;50.934;6.958;2022-07-29T06:05:22;19.60;53.80
3678;DHT22;1855;50.934;6.958;2022-07-29T06:07:49;19.60;53.90
3678;DHT22;1855;50.934;6.958;2022-07-29T06:10:15;19.70;53.60
3678;DHT22;1855;50.934;6.958;2022-07-29T06:12:42;19.70;53.00
3678;DHT22;1855;50.934;6.958;2022-07-29T06:15:11;19.80;53.10
3678;DHT22;1855;50.934;6.958;2022-07-29T06:17:37;19.80;52.80
3678;DHT22;1855;50.934;6.958;2022-07-29T06:20:05;19.90;53.30
3678;DHT22;1855;50.934;6.958;2022-07-29T06:22:32;19.90;53.50
3678;DHT22;1855;50.934;6.958;2022-07-29T06:24:59;19.90;53.20
3678;DHT22;1855;50.934;6.958;2022-07-29T06:27:27;19.90;52.80
3678;DHT22;1855;50.934;6.958;2022-07-29T06:29:56;20.00;52.60
3678;DHT22;1855;50.934;6.958;2022-07-29T06:32:24;20.00;50.80
3678;DHT22;1855;50.934;6.958;2022-07-29T06:34:51;19.90;51.60
3678;DHT22;1855;50.934;6.958;2022-07-29T06:37:17;19.90;51.50
3678;DHT22;1855;50.934;6.958;2022-07-29T06:39:44;19.90;51.70
3678;DHT22;1855;50.934;6.958;2022-07-29T06:42:11;19.80;52.60
3678;DHT22;1855;50.934;6.958;2022-07-29T06:44:38;19.80;52.30
3678;DHT22;1855;50.934;6.958;2022-07-29T06:47:05;19.70;53.20
3678;DHT22;1855;50.934;6.958;2022-07-29T06:49:33;19.70;53.40
3678;DHT22;1855;50.934;6.958;2022-07-29T06:51:59;19.70;53.30
3678;DHT22;1855;50.934;6.958;2022-07-29T06:54:27;19.70;53.40
3678;DHT22;1855;50.934;6.958;2022-07-29T06:56:54;19.70;53.00
3678;DHT22;1855;50.934;6.958;2022-07-29T06:59:21;19.70;53.60
3678;DHT22;1855;50.934;6.958;2022-07-29T07:01:47;19.70;53.20
3678;DHT22;1855;50.934;6.958;2022-07-29T07:04:14;19.80;53.40
3678;DHT22;1855;50.934;6.958;2022-07-29T07:06:42;19.70;55.10
3678;DHT22;1855;50.934;6.958;2022-07-29T07:09:09;19.70;57.40
3678;DHT22;1855;50.934;6.958;2022-07-29T07:11:36;19.70;56.50
3678;DHT22;1855;50.934;6.958;2022-07-29T07:14:02;19.70;59.60
3678;DHT22;1855;50.934;6.958;2022-07-29T07:16:29;19.80;58.10
3678;DHT22;1855;50.934;6.958;2022-07-29T07:18:56;19.80;58.60
3678;DHT22;1855;50.934;6.958;2022-07-29T07:21:23;19.80;58.30
3678;DHT22;1855;50.934;6.958;2022-07-29T07:23:51;19.90;57.40
3678;DHT22;1855;50.934;6.958;2022-07-29T07:26:18;20.00;56.00
3678;DHT22;1855;50.934;6.958;2022-07-29T07:28:45;20.10;55.00
3678;DHT22;1855;50.934;6.958;2022-07-29T07:31:12;20.20;53.70
3678;DHT22;1855;50.934;6.958;2022-07-29T07:33:39;20.20;53.40
3678;DHT22;1855;50.934;6.958;2022-07-29T07:36:06;20.30;53.10
3678;DHT22;1855;50.934;6.958;2022-07-29T07:38:33;20.30;52.80
3678;DHT22;1855;50.934;6.958;2022-07-29T07:41:01;20.30;53.90
3678;DHT22;1855;50.934;6.958;2022-07-29T07:43:28;20.30;55.40
3678;DHT22;1855;50.934;6.958;2022-07-29T07:45:55;20.30;55.30
3678;DHT22;1855;50.934;6.958;2022-07-29T07:48:22;20.30;54.50
3678;DHT22;1855;50.934;6.958;2022-07-29T07:50:49;20.30;53.80
3678;DHT22;1855;50.934;6.958;2022-07-29T07:53:16;20.30;53.80
3678;DHT22;1855;50.934;6.958;2022-07-29T07:55:43;20.20;54.30
3678;DHT22;1855;50.934;6.958;2022-07-29T07:58:11;20.10;54.70
3678;DHT22;1855;50.934;6.958;2022-07-29T08:00:38;19.90;58.90
3678;DHT22;1855;50.934;6.958;2022-07-29T08:03:05;19.70;60.20
3678;DHT22;1855;50.934;6.958;2022-07-29T08:05:32;19.60;60.80
3678;DHT22;1855;50.934;6.958;2022-07-29T08:07:58;19.50;62.30
3678;DHT22;1855;50.934;6.958;2022-07-29T08:10:25;19.40;63.30
3678;DHT22;1855;50.934;6.958;2022-07-29T08:13:11;19.30;63.90
3678;DHT22;1855;50.934;6.958;2022-07-29T08:15:39;19.30;63.60
3678;DHT22;1855;50.934;6.958;2022-07-29T08:18:07;19.30;64.10
3678;DHT22;1855;50.934;6.958;2022-07-29T08:20:34;19.40;64.40
3678;DHT22;1855;50.934;6.958;2022-07-29T08:23:02;19.50;64.90
3678;DHT22;1855;50.934;6.958;2022-07-29T08:25:29;19.60;63.10
3678;DHT22;1855;50.934;6.958;2022-07-29T08:27:56;19.70;61.10
3678;DHT22;1855;50.934;6.958;2022-07-29T08:30:24;19.80;61.10
3678;DHT22;1855;50.934;6.958;2022-07-29T08:32:51;19.90;61.10
3678;DHT22;1855;50.934;6.958;2022-07-29T08:35:18;20.00;61.10
3678;DHT22;1855;50.934;6.958;2022-07-29T08:37:45;20.00;60.60
3678;DHT22;1855;50.934;6.958;2022-07-29T08:40:12;20.10;64.90
3678;DHT22;1855;50.934;6.958;2022-07-29T08:42:39;20.10;66.60
3678;DHT22;1855;50.934;6.958;2022-07-29T08:45:07;20.20;65.40
3678;DHT22;1855;50.934;6.958;2022-07-29T08:47:36;20.20;66.50
3678;DHT22;1855;50.934;6.958;2022-07-29T08:50:06;20.30;62.80
3678;DHT22;1855;50.934;6.958;2022-07-29T08:52:36;20.30;62.90
3678;DHT22;1855;50.934;6.958;2022-07-29T08:55:04;20.40;61.70
3678;DHT22;1855;50.934;6.958;2022-07-29T08:57:33;20.50;60.90
3678;DHT22;1855;50.934;6.958;2022-07-29T09:00:01;20.60;60.10
3678;DHT22;1855;50.934;6.958;2022-07-29T09:02:34;20.70;59.80
3678;DHT22;1855;50.934;6.958;2022-07-29T09:05:04;20.80;59.10
3678;DHT22;1855;50.934;6.958;2022-07-29T09:07:32;20.90;56.80
3678;DHT22;1855;50.934;6.958;2022-07-29T09:09:59;20.90;56.30
3678;DHT22;1855;50.934;6.958;2022-07-29T09:12:26;20.90;57.60
3678;DHT22;1855;50.934;6.958;2022-07-29T09:14:53;20.80;57.60
3678;DHT22;1855;50.934;6.958;2022-07-29T09:17:39;20.70;58.30
3678;DHT22;1855;50.934;6.958;2022-07-29T09:20:10;20.70;59.30
3678;DHT22;1855;50.934;6.958;2022-07-29T09:22:37;20.60;60.90
3678;DHT22;1855;50.934;6.958;2022-07-29T09:25:04;20.50;62.00
3678;DHT22;1855;50.934;6.958;2022-07-29T09:27:31;20.60;62.70
3678;DHT22;1855;50.934;6.958;2022-07-29T09:30:00;20.60;60.10
3678;DHT22;1855;50.934;6.958;2022-07-29T09:32:27;20.50;61.30
3678;DHT22;1855;50.934;6.958;2022-07-29T09:35:18;20.50;62.80
3678;DHT22;1855;50.934;6.958;2022-07-29T09:37:45;20.40;62.90
3678;DHT22;1855;50.934;6.958;2022-07-29T09:40:14;20.50;63.50
3678;DHT22;1855;50.934;6.958;2022-07-29T09:42:42;20.70;62.50
3678;DHT22;1855;50.934;6.958;2022-07-29T09:45:09;20.90;61.60
3678;DHT22;1855;50.934;6.958;2022-07-29T09:47:45;21.20;58.70
3678;DHT22;1855;50.934;6.958;2022-07-29T09:50:14;21.10;58.10
3678;DHT22;1855;50.934;6.958;2022-07-29T09:52:47;21.10;59.70
3678;DHT22;1855;50.934;6.958;2022-07-29T09:55:14;21.00;60.00
3678;DHT22;1855;50.934;6.958;2022-07-29T09:57:41;21.00;59.70
3678;DHT22;1855;50.934;6.958;2022-07-29T10:00:10;21.20;59.00
3678;DHT22;1855;50.934;6.958;2022-07-29T10:02:40;21.40;57.90
3678;DHT22;1855;50.934;6.958;2022-07-29T10:05:17;21.50;58.30
3678;DHT22;1855;50.934;6.958;2022-07-29T10:07:47;21.60;57.20
3678;DHT22;1855;50.934;6.958;2022-07-29T10:10:22;21.70;57.10
3678;DHT22;1855;50.934;6.958;2022-07-29T10:12:52;21.80;56.70
3678;DHT22;1855;50.934;6.958;2022-07-29T10:15:21;21.90;55.30
3678;DHT22;1855;50.934;6.958;2022-07-29T10:17:48;22.00;54.70
3678;DHT22;1855;50.934;6.958;2022-07-29T10:20:16;22.20;54.60
3678;DHT22;1855;50.934;6.958;2022-07-29T10:22:43;22.40;54.70
3678;DHT22;1855;50.934;6.958;2022-07-29T10:25:14;22.50;53.60
3678;DHT22;1855;50.934;6.958;2022-07-29T10:27:41;22.80;52.20
3678;DHT22;1855;50.934;6.958;2022-07-29T10:30:09;22.80;52.40
3678;DHT22;1855;50.934;6.958;2022-07-29T10:32:54;22.80;51.30
3678;DHT22;1855;50.934;6.958;2022-07-29T10:35:42;22.90;52.00
3678;DHT22;1855;50.934;6.958;2022-07-29T10:44:21;23.30;50.50
3678;DHT22;1855;50.934;6.958;2022-07-29T10:46:50;23.50;50.80
3678;DHT22;1855;50.934;6.958;2022-07-29T10:49:18;23.90;49.50
3678;DHT22;1855;50.934;6.958;2022-07-29T10:51:57;24.20;49.90
3678;DHT22;1855;50.934;6.958;2022-07-29T10:54:37;24.40;49.00
3678;DHT22;1855;50.934;6.958;2022-07-29T10:57:16;24.50;46.10
3678;DHT22;1855;50.934;6.958;2022-07-29T10:59:44;24.80;47.30
3678;DHT22;1855;50.934;6.958;2022-07-29T11:02:42;25.20;46.40
3678;DHT22;1855;50.934;6.958;2022-07-29T11:05:10;25.90;43.80
3678;DHT22;1855;50.934;6.958;2022-07-29T11:07:39;26.30;42.90
3678;DHT22;1855;50.934;6.958;2022-07-29T11:10:20;26.70;42.40
3678;DHT22;1855;50.934;6.958;2022-07-29T11:12:48;26.90;41.30
3678;DHT22;1855;50.934;6.958;2022-07-29T11:15:17;26.90;41.60
3678;DHT22;1855;50.934;6.958;2022-07-29T11:18:06;26.90;41.40
3678;DHT22;1855;50.934;6.958;2022-07-29T11:20:38;26.90;40.90
3678;DHT22;1855;50.934;6.958;2022-07-29T11:23:20;26.80;40.70
3678;DHT22;1855;50.934;6.958;2022-07-29T11:26:13;26.50;40.60
3678;DHT22;1855;50.934;6.958;2022-07-29T11:28:59;26.60;40.60
3678;DHT22;1855;50.934;6.958;2022-07-29T11:31:36;26.80;40.30
3678;DHT22;1855;50.934;6.958;2022-07-29T11:34:21;26.00;41.50
3678;DHT22;1855;50.934;6.958;2022-07-29T11:40:12;25.50;41.30
3678;DHT22;1855;50.934;6.958;2022-07-29T11:42:44;25.40;41.30
3678;DHT22;1855;50.934;6.958;2022-07-29T11:45:15;25.20;42.20
3678;DHT22;1855;50.934;6.958;2022-07-29T11:47:48;25.30;42.00
3678;DHT22;1855;50.934;6.958;2022-07-29T11:50:17;25.60;41.80
3678;DHT22;1855;50.934;6.958;2022-07-29T11:52:45;25.60;41.90
3678;DHT22;1855;50.934;6.958;2022-07-29T11:55:14;25.40;42.60
3678;DHT22;1855;50.934;6.958;2022-07-29T11:57:47;25.40;41.90
3678;DHT22;1855;50.934;6.958;2022-07-29T12:00:27;25.30;42.50
3678;DHT22;1855;50.934;6.958;2022-07-29T12:02:55;25.10;43.10
3678;DHT22;1855;50.934;6.958;2022-07-29T12:05:37;24.80;43.30
3678;DHT22;1855;50.934;6.958;2022-07-29T12:08:06;25.00;43.30
3678;DHT22;1855;50.934;6.958;2022-07-29T12:10:33;25.00;42.60
3678;DHT22;1855;50.934;6.958;2022-07-29T12:13:00;25.20;42.70
3678;DHT22;1855;50.934;6.958;2022-07-29T12:15:29;24.90;43.50
3678;DHT22;1855;50.934;6.958;2022-07-29T12:17:56;25.00;43.00
3678;DHT22;1855;50.934;6.958;2022-07-29T12:20:24;25.20;42.10
3678;DHT22;1855;50.934;6.958;2022-07-29T12:22:51;25.40;42.10
3678;DHT22;1855;50.934;6.958;2022-07-29T12:25:21;25.70;41.50
3678;DHT22;1855;50.934;6.958;2022-07-29T12:27:57;25.90;41.00
3678;DHT22;1855;50.934;6.958;2022-07-29T12:30:36;26.10;40.70
3678;DHT22;1855;50.934;6.958;2022-07-29T12:33:17;26.70;38.30
3678;DHT22;1855;50.934;6.958;2022-07-29T12:35:47;27.00;38.80
3678;DHT22;1855;50.934;6.958;2022-07-29T12:38:14;27.20;36.90
3678;DHT22;1855;50.934;6.958;2022-07-29T12:40:43;27.30;37.60
3678;DHT22;1855;50.934;6.958;2022-07-29T12:43:12;27.30;37.60
3678;DHT22;1855;50.934;6.958;2022-07-29T12:45:42;27.50;37.30
3678;DHT22;1855;50.934;6.958;2022-07-29T12:48:08;27.70;36.40
3678;DHT22;1855;50.934;6.958;2022-07-29T12:50:37;28.00;36.10
3678;DHT22;1855;50.934;6.958;2022-07-29T12:53:17;28.30;34.90
3678;DHT22;1855;50.934;6.958;2022-07-29T12:55:46;28.50;34.20
3678;DHT22;1855;50.934;6.958;2022-07-29T12:58:25;28.60;34.30
3678;DHT22;1855;50.934;6.958;2022-07-29T13:01:06;28.80;34.10
3678;DHT22;1855;50.934;6.958;2022-07-29T13:03:47;29.00;33.70
3678;DHT22;1855;50.934;6.958;2022-07-29T13:06:39;29.10;33.30
3678;DHT22;1855;50.934;6.958;2022-07-29T13:09:09;28.40;33.10
3678;DHT22;1855;50.934;6.958;2022-07-29T13:11:38;28.20;33.60
3678;DHT22;1855;50.934;6.958;2022-07-29T13:14:06;28.50;33.80
3678;DHT22;1855;50.934;6.958;2022-07-29T13:16:35;29.20;33.50
3678;DHT22;1855;50.934;6.958;2022-07-29T13:19:04;29.60;32.70
3678;DHT22;1855;50.934;6.958;2022-07-29T13:21:31;29.70;32.30
3678;DHT22;1855;50.934;6.958;2022-07-29T13:23:58;29.80;32.10
3678;DHT22;1855;50.934;6.958;2022-07-29T13:26:25;29.90;31.80
3678;DHT22;1855;50.934;6.958;2022-07-29T13:28:54;30.00;31.60
3678;DHT22;1855;50.934;6.958;2022-07-29T13:31:21;30.10;31.90
3678;DHT22;1855;50.934;6.958;2022-07-29T13:33:49;30.10;31.40
3678;DHT22;1855;50.934;6.958;2022-07-29T13:36:16;30.10;31.00
3678;DHT22;1855;50.934;6.958;2022-07-29T13:38:43;30.10;31.40
3678;DHT22;1855;50.934;6.958;2022-07-29T13:41:10;29.90;31.40
3678;DHT22;1855;50.934;6.958;2022-07-29T13:43:37;29.60;33.00
3678;DHT22;1855;50.934;6.958;2022-07-29T13:46:03;29.50;34.60
3678;DHT22;1855;50.934;6.958;2022-07-29T13:48:30;29.30;34.30
3678;DHT22;1855;50.934;6.958;2022-07-29T13:50:58;29.20;34.80
3678;DHT22;1855;50.934;6.958;2022-07-29T13:53:25;29.20;34.70
3678;DHT22;1855;50.934;6.958;2022-07-29T13:55:53;29.20;35.00
3678;DHT22;1855;50.934;6.958;2022-07-29T13:58:20;29.20;34.90
3678;DHT22;1855;50.934;6.958;2022-07-29T14:00:47;29.10;35.10
3678;DHT22;1855;50.934;6.958;2022-07-29T14:03:13;29.10;35.20
3678;DHT22;1855;50.934;6.958;2022-07-29T14:05:40;29.00;34.40
3678;DHT22;1855;50.934;6.958;2022-07-29T14:08:08;29.00;34.60
3678;DHT22;1855;50.934;6.958;2022-07-29T14:10:35;28.70;35.60
3678;DHT22;1855;50.934;6.958;2022-07-29T14:13:02;28.50;35.60
3678;DHT22;1855;50.934;6.958;2022-07-29T14:15:29;28.40;35.80
3678;DHT22;1855;50.934;6.958;2022-07-29T14:17:55;28.40;35.50
3678;DHT22;1855;50.934;6.958;2022-07-29T14:20:22;28.40;35.10
3678;DHT22;1855;50.934;6.958;2022-07-29T14:22:49;28.40;35.50
3678;DHT22;1855;50.934;6.958;2022-07-29T14:25:17;28.70;35.60
3678;DHT22;1855;50.934;6.958;2022-07-29T14:27:44;28.70;34.70
3678;DHT22;1855;50.934;6.958;2022-07-29T14:30:12;28.80;35.00
3678;DHT22;1855;50.934;6.958;2022-07-29T14:32:39;28.80;34.30
3678;DHT22;1855;50.934;6.958;2022-07-29T14:35:07;28.80;33.70
3678;DHT22;1855;50.934;6.958;2022-07-29T14:37:34;28.70;33.90
3678;DHT22;1855;50.934;6.958;2022-07-29T14:40:01;28.30;35.00
3678;DHT22;1855;50.934;6.958;2022-07-29T14:42:30;27.90;35.70
3678;DHT22;1855;50.934;6.958;2022-07-29T14:44:58;27.80;36.90
3678;DHT22;1855;50.934;6.958;2022-07-29T14:47:24;27.80;35.50
3678;DHT22;1855;50.934;6.958;2022-07-29T14:49:51;27.80;35.50
3678;DHT22;1855;50.934;6.958;2022-07-29T14:52:18;27.90;36.30
3678;DHT22;1855;50.934;6.958;2022-07-29T14:54:45;27.90;35.40
3678;DHT22;1855;50.934;6.958;2022-07-29T14:57:11;28.00;36.00
3678;DHT22;1855;50.934;6.958;2022-07-29T14:59:40;28.10;36.30
3678;DHT22;1855;50.934;6.958;2022-07-29T15:02:06;28.10;36.90
3678;DHT22;1855;50.934;6.958;2022-07-29T15:04:33;28.10;36.10
3678;DHT22;1855;50.934;6.958;2022-07-29T15:07:00;28.10;36.50
3678;DHT22;1855;50.934;6.958;2022-07-29T15:09:27;28.20;36.40
3678;DHT22;1855;50.934;6.958;2022-07-29T15:11:54;28.20;36.20
3678;DHT22;1855;50.934;6.958;2022-07-29T15:14:20;28.20;34.90
3678;DHT22;1855;50.934;6.958;2022-07-29T15:16:49;28.20;35.90
3678;DHT22;1855;50.934;6.958;2022-07-29T15:19:15;28.10;35.70
3678;DHT22;1855;50.934;6.958;2022-07-29T15:21:42;28.10;35.60
3678;DHT22;1855;50.934;6.958;2022-07-29T15:24:09;28.10;35.00
3678;DHT22;1855;50.934;6.958;2022-07-29T15:26:36;27.90;36.00
3678;DHT22;1855;50.934;6.958;2022-07-29T15:29:02;27.70;36.70
3678;DHT22;1855;50.934;6.958;2022-07-29T15:31:29;27.70;36.40
3678;DHT22;1855;50.934;6.958;2022-07-29T15:33:57;27.60;36.80
3678;DHT22;1855;50.934;6.958;2022-07-29T15:36:24;27.60;37.30
3678;DHT22;1855;50.934;6.958;2022-07-29T15:38:52;27.50;37.30
3678;DHT22;1855;50.934;6.958;2022-07-29T15:41:20;27.60;37.20
3678;DHT22;1855;50.934;6.958;2022-07-29T15:43:47;27.80;34.70
3678;DHT22;1855;50.934;6.958;2022-07-29T15:46:15;27.80;36.10
3678;DHT22;1855;50.934;6.958;2022-07-29T15:49:02;27.80;35.30
3678;DHT22;1855;50.934;6.958;2022-07-29T15:51:29;27.80;35.90
3678;DHT22;1855;50.934;6.958;2022-07-29T15:53:55;27.90;34.50
3678;DHT22;1855;50.934;6.958;2022-07-29T15:56:22;27.90;35.60
3678;DHT22;1855;50.934;6.958;2022-07-29T15:58:49;27.80;35.30
3678;DHT22;1855;50.934;6.958;2022-07-29T16:01:16;27.70;36.10
3678;DHT22;1855;50.934;6.958;2022-07-29T16:03:43;27.70;35.90
3678;DHT22;1855;50.934;6.958;2022-07-29T16:06:12;27.60;36.10
3678;DHT22;1855;50.934;6.958;2022-07-29T16:08:38;27.60;35.60
3678;DHT22;1855;50.934;6.958;2022-07-29T16:11:05;27.50;35.40
3678;DHT22;1855;50.934;6.958;2022-07-29T16:13:32;27.40;35.90
3678;DHT22;1855;50.934;6.958;2022-07-29T16:15:59;27.40;34.60
3678;DHT22;1855;50.934;6.958;2022-07-29T16:18:26;27.40;34.90
3678;DHT22;1855;50.934;6.958;2022-07-29T16:20:52;27.30;35.90
3678;DHT22;1855;50.934;6.958;2022-07-29T16:23:21;27.20;36.20